»·PEaware :: CFEGU KSNA-KSBA

CFEGU :: KSNA-KSBA

FLIGHT INFORMATION

Flight Status: Arrived
Operator: Unknown
More flights by this operator :: More flights under this callsign
Pilot: Vincent M. (370)
Aircraft: CESSNA 172 SKYHAWK
(C172)
More flights by this aircraft type
Origin: KSNA John Wayne-Orange Co
United States
Destination: KSBA Santa Barbara Mun
United States
More flights between these airports :: More routes between these airports
Route: +
File this flight plan on PilotEdge
Remarks:
Altitude:
(Current/Filed)
0ft
Speed:
(Current/Filed)
0kts
Departed: 01-Dec-19 05:57 PM
Arrived: 01-Dec-19 07:09 PM
Distance/Time
Traveled:
108nm/1:12
Distance/Time
To Go:
Arrived

Flight Plot

Page will automatically refresh every two minutes.


Map Options




Map Legend


Flown Route
Filed Route
Departure Airport
Arrival Airport
Navaid (VOR, NDB)
Fix

Horizontal Profiles

Position Reports

Time Latitude Longitude Heading Altitude Ground
Speed
01-Dec-19 17:48 33.675831 -117.870967 68 60ft 0kts
01-Dec-19 17:49 33.675831 -117.870967 68 60ft 0kts
01-Dec-19 17:50 33.675831 -117.870967 68 60ft 0kts
01-Dec-19 17:52 33.675831 -117.870967 68 60ft 0kts
01-Dec-19 17:53 33.675831 -117.870967 68 60ft 0kts
01-Dec-19 17:54 33.675831 -117.870967 68 60ft 0kts
01-Dec-19 17:55 33.676669 -117.869706 27 60ft 18kts
01-Dec-19 17:56 33.681194 -117.866947 57 60ft 14kts
01-Dec-19 17:57 33.679819 -117.866222 207 60ft 41kts
01-Dec-19 17:58 33.662146 -117.877110 207 812ft 76kts
01-Dec-19 17:59 33.646845 -117.893633 231 1690ft 75kts
01-Dec-19 18:00 33.632372 -117.911304 231 2429ft 85kts
01-Dec-19 18:01 33.612192 -117.937271 232 2393ft 113kts
01-Dec-19 18:02 33.596231 -117.966823 277 2916ft 96kts
01-Dec-19 18:03 33.600714 -117.996038 281 3708ft 84kts
01-Dec-19 18:04 33.605285 -118.019580 281 4631ft 58kts
01-Dec-19 18:05 33.606318 -118.036066 266 5323ft 46kts
01-Dec-19 18:06 33.606295 -118.052669 265 5860ft 56kts
01-Dec-19 18:07 33.605337 -118.073513 260 6378ft 68kts
01-Dec-19 18:08 33.620179 -118.096635 310 6495ft 109kts
01-Dec-19 18:09 33.643673 -118.119827 310 6494ft 110kts
01-Dec-19 18:10 33.666711 -118.144120 307 6494ft 110kts
01-Dec-19 18:11 33.689522 -118.168689 307 6494ft 110kts
01-Dec-19 18:11 33.708548 -118.189172 308 6494ft 109kts
01-Dec-19 18:13 33.734976 -118.217693 307 6494ft 109kts
01-Dec-19 18:14 33.756544 -118.240924 306 6494ft 109kts
01-Dec-19 18:14 33.775323 -118.261282 304 6503ft 109kts
01-Dec-19 18:15 33.797977 -118.285842 304 6504ft 110kts
01-Dec-19 18:17 33.824790 -118.314722 304 6504ft 110kts
01-Dec-19 18:17 33.843748 -118.335336 305 6504ft 111kts
01-Dec-19 18:18 33.866660 -118.360165 304 6495ft 110kts
01-Dec-19 18:19 33.889512 -118.384754 305 6494ft 109kts
01-Dec-19 18:20 33.911780 -118.409209 304 6494ft 108kts
01-Dec-19 18:21 33.935643 -118.432305 313 6494ft 112kts
01-Dec-19 18:22 33.965140 -118.448404 324 6503ft 117kts
01-Dec-19 18:23 33.995291 -118.463440 324 6503ft 117kts
01-Dec-19 18:24 34.025651 -118.477888 326 6503ft 117kts
01-Dec-19 18:25 34.056030 -118.492132 325 6503ft 117kts
01-Dec-19 18:26 34.086335 -118.506724 325 6503ft 117kts
01-Dec-19 18:27 34.116275 -118.521272 325 6499ft 116kts
01-Dec-19 18:28 34.139214 -118.542802 284 6499ft 97kts
01-Dec-19 18:29 34.149695 -118.572588 281 6499ft 96kts
01-Dec-19 18:30 34.159422 -118.602260 281 6499ft 93kts
01-Dec-19 18:31 34.168088 -118.631296 281 6499ft 90kts
01-Dec-19 18:32 34.175805 -118.659519 280 6505ft 90kts
01-Dec-19 18:33 34.183459 -118.688488 280 6505ft 90kts
01-Dec-19 18:34 34.191040 -118.717600 280 6505ft 90kts
01-Dec-19 18:35 34.198522 -118.746722 280 6504ft 90kts
01-Dec-19 18:36 34.206477 -118.775535 280 6495ft 89kts
01-Dec-19 18:37 34.218336 -118.808063 280 6494ft 118kts
01-Dec-19 18:38 34.232255 -118.844941 280 6493ft 121kts
01-Dec-19 18:39 34.246195 -118.882214 280 6492ft 121kts
01-Dec-19 18:40 34.260366 -118.919423 280 6492ft 122kts
01-Dec-19 18:41 34.274633 -118.956193 280 6224ft 122kts
01-Dec-19 18:42 34.288699 -118.994266 280 5714ft 126kts
01-Dec-19 18:43 34.302382 -119.033856 277 5203ft 128kts
01-Dec-19 18:44 34.307264 -119.075297 260 4691ft 123kts
01-Dec-19 18:45 34.307467 -119.116152 254 4503ft 118kts
01-Dec-19 18:46 34.304608 -119.155305 249 4505ft 115kts
01-Dec-19 18:47 34.300312 -119.192719 249 4503ft 110kts
01-Dec-19 18:48 34.296012 -119.228503 249 4503ft 105kts
01-Dec-19 18:49 34.291763 -119.263301 249 4503ft 104kts
01-Dec-19 18:50 34.287714 -119.298206 249 4503ft 104kts
01-Dec-19 18:51 34.283628 -119.332968 249 4503ft 104kts
01-Dec-19 18:52 34.279481 -119.367815 249 4503ft 104kts
01-Dec-19 18:53 34.275602 -119.402604 253 4503ft 106kts
01-Dec-19 18:54 34.277203 -119.439014 268 4448ft 111kts
01-Dec-19 18:55 34.286051 -119.477171 278 3943ft 123kts
01-Dec-19 18:56 34.297409 -119.516773 279 3436ft 125kts
01-Dec-19 18:57 34.309516 -119.556854 289 2929ft 130kts
01-Dec-19 18:58 34.326002 -119.596396 289 2493ft 129kts
01-Dec-19 18:59 34.341639 -119.634322 289 2504ft 124kts
01-Dec-19 19:00 34.357012 -119.671772 289 2502ft 124kts
01-Dec-19 19:01 34.372638 -119.711236 289 2087ft 134kts
01-Dec-19 19:02 34.387993 -119.752621 289 1508ft 134kts
01-Dec-19 19:03 34.402757 -119.791742 297 1019ft 111kts
01-Dec-19 19:04 34.408774 -119.821913 257 1033ft 92kts
01-Dec-19 19:05 34.406768 -119.854329 257 1027ft 96kts
01-Dec-19 19:06 34.413050 -119.878754 2 904ft 89kts
01-Dec-19 19:07 34.427374 -119.865924 94 191ft 66kts
01-Dec-19 19:08 34.427584 -119.848750 86 17ft 29kts
01-Dec-19 19:09 34.428144 -119.846090 60 17ft 13kts

Navigation Log

Ident Type
Flight plan parsing failed, navigation log unavailable